Briefing drone pour Bellerive-sur-allier

Rechercher une autre localisation

Conditions de vol :


Nous sommes le : Mardi 16 avril 2024
Il est 23:49 UTC (01:49 LT)

Lever de soleil : 04:30 UTC (06:30 LT)
Coucher de soleil : 19:01 UTC (21:01 LT)

Météo

L'essentiel des conditions de vol

VIGILANCE MÉTÉO FRANCE - Allier (03)
Pas de vigilances particulieres
CARTE TEMSI
CARTES DES FRONTS
METAR de LFLV
LFLV 151800Z AUTO 27010G20KT 200V330 9999 OVC056 14/04 Q1017

Date d'émission: 15/04/2024
Heure d'émission: 18:00 UTC
Vent: 270° (variable du 200° au 330°) pour 10 KT (19 km/h) rafales pour 20 KT (37 km/h)
Visibilité horizontale: > 10 km
Plafond :
- Couvert à 5600ft (1707m)
Température: 14 °C
Point de rosée: 4 °C
Humidité: 51%
Pression (QNH): 1017 hPa
Prévision 24h pour Vichy (1 km)
Vent : 282° pour 3 KT (11 km/h)
Temperature Maxi: 7 °C
Temperature Min: 7 °C
Humidité : 83%
Condition : Légère pluie


WEBCAM POUR BELLERIVE-SUR-ALLIER

Réglementation

Voler en sécurité

CARTES AERONAUTIQUE 1/500.000
CARTE AZBA (Reseau basse altitude)
CARTES VAC (LFLV)
SUP AIP




Chargement des AIP...
NOTAM (BELLERIVE-SUR-ALLIER + Terrain à proximité / FIR )




Chargement des NOTAMS...
CONTACT PREFECTURE 03
Allier (03) : [email protected]


Avertissement : Les données mises à disposition sont indicatives. Oxygène Drone ne pourra être tenu responsable de dégâts causés aux biens et aux personnes.